Time;durP1;ratioP1;P1;durP2;ratioP2;P2;SDS_P1;SDS_P2;PMS_P1;PMS_P2;Temp;Humidity;BMP_temperature;BMP_pressure;BME280_temperature;BME280_humidity;BME280_pressure;Samples;Min_cycle;Max_cycle;Signal;HPM_P1;HPM_P2
2022/11/13 00:00:47;;;;;;;21.40;19.17;;;;;21.60;101617.00;;;;2069896;28;20214;-49
2022/11/13 00:01:47;;;;;;;22.90;20.50;;;;;21.60;101641.00;;;;2069167;28;20305;-50
2022/11/13 00:02:47;;;;;;;21.23;18.60;;;;;21.60;101607.00;;;;2070598;28;20585;-51
2022/11/13 00:03:48;;;;;;;21.10;18.87;;;;;21.60;101609.00;;;;2070714;28;20697;-50
2022/11/13 00:04:48;;;;;;;22.27;19.90;;;;;21.60;101618.00;;;;2070711;28;20674;-50
2022/11/13 00:05:57;;;;;;;20.50;18.20;;;;;21.60;101612.00;;;;2070789;28;20214;-50
2022/11/13 00:06:57;;;;;;;21.63;18.88;;;;;21.60;101612.00;;;;2070141;28;20218;-50
2022/11/13 00:07:58;;;;;;;20.97;18.77;;;;;21.60;101608.00;;;;2069571;28;20647;-54
2022/11/13 00:08:58;;;;;;;21.80;19.00;;;;;21.60;101614.00;;;;2070939;28;20237;-52
2022/11/13 00:09:59;;;;;;;20.70;18.50;;;;;21.60;101607.00;;;;2070760;28;20622;-52
2022/11/13 00:11:10;;;;;;;19.63;17.63;;;;;21.60;101608.00;;;;2070416;28;20759;-52
2022/11/13 00:12:11;;;;;;;19.70;17.60;;;;;21.60;101615.00;;;;2069320;28;20209;-50
2022/11/13 00:13:11;;;;;;;20.67;18.40;;;;;21.60;101613.00;;;;2069894;28;20217;-50
2022/11/13 00:14:11;;;;;;;19.20;17.20;;;;;21.60;101619.00;;;;2070387;28;20854;-50
2022/11/13 00:15:12;;;;;;;22.73;18.00;;;;;21.60;101617.00;;;;2070479;28;20701;-50
2022/11/13 00:16:14;;;;;;;19.70;17.27;;;;;21.50;101623.00;;;;2070530;28;20761;-49
2022/11/13 00:17:14;;;;;;;19.30;17.23;;;;;21.50;101616.00;;;;2070714;28;20655;-50
2022/11/13 00:18:14;;;;;;;20.30;18.20;;;;;21.50;101614.00;;;;2070711;28;20214;-49
2022/11/13 00:19:15;;;;;;;19.10;17.10;;;;;21.50;101612.00;;;;2070460;28;20234;-50
2022/11/13 00:20:16;;;;;;;19.10;17.17;;;;;21.50;101607.00;;;;2068858;28;20245;-50
2022/11/13 00:21:19;;;;;;;18.75;16.75;;;;;21.50;101609.00;;;;2070553;28;20273;-50
2022/11/13 00:22:19;;;;;;;18.48;16.55;;;;;21.50;101606.00;;;;2069065;28;20221;-50
2022/11/13 00:23:20;;;;;;;19.67;17.53;;;;;21.50;101606.00;;;;2069770;28;20596;-49
2022/11/13 00:24:20;;;;;;;18.17;16.23;;;;;21.50;101606.00;;;;2070652;28;20345;-50
2022/11/13 00:25:21;;;;;;;17.80;16.00;;;;;21.50;101609.00;;;;2070540;28;20233;-50
2022/11/13 00:26:23;;;;;;;18.20;15.80;;;;;21.50;101609.00;;;;2070188;28;20291;-50
2022/11/13 00:27:23;;;;;;;17.42;15.57;;;;;21.50;101607.00;;;;2057593;28;20297;-50
2022/11/13 00:28:23;;;;;;;18.90;17.00;;;;;21.50;101605.00;;;;2061646;28;20698;-50
2022/11/13 00:29:24;;;;;;;17.33;15.50;;;;;21.50;101607.00;;;;2068227;28;20643;-50
2022/11/13 00:30:24;;;;;;;17.73;16.00;;;;;21.50;101612.00;;;;2069719;28;20235;-50
2022/11/13 00:31:25;;;;;;;17.37;15.63;;;;;21.50;101608.00;;;;2069896;28;20313;-49
2022/11/13 00:32:25;;;;;;;19.90;16.83;;;;;21.50;101602.00;;;;2069192;28;20211;-50
2022/11/13 00:33:26;;;;;;;17.40;15.50;;;;;21.50;101597.00;;;;2070510;28;20206;-49
2022/11/13 00:34:26;;;;;;;17.83;16.03;;;;;21.50;101598.00;;;;2070657;28;20681;-50
2022/11/13 00:35:26;;;;;;;18.03;16.13;;;;;21.50;101598.00;;;;2070424;28;20313;-50
2022/11/13 00:36:27;;;;;;;16.00;14.37;;;;;21.40;101602.00;;;;2070690;28;20238;-50
2022/11/13 00:37:27;;;;;;;17.07;15.37;;;;;21.50;101602.00;;;;2070564;28;20218;-50
2022/11/13 00:38:28;;;;;;;16.33;14.77;;;;;21.40;101590.00;;;;2070658;28;20206;-50
2022/11/13 00:39:28;;;;;;;15.83;14.23;;;;;21.50;101596.00;;;;2070511;28;20257;-49
2022/11/13 00:40:28;;;;;;;16.87;14.90;;;;;21.50;101591.00;;;;2070602;28;20218;-50
2022/11/13 00:41:29;;;;;;;16.80;15.03;;;;;21.50;101589.00;;;;2069661;28;20257;-51
2022/11/13 00:42:29;;;;;;;16.27;14.67;;;;;21.50;101588.00;;;;2069442;28;20259;-49
2022/11/13 00:43:29;;;;;;;16.70;15.10;;;;;21.40;101601.00;;;;2069685;28;20218;-50
2022/11/13 00:44:30;;;;;;;16.27;14.67;;;;;21.50;101592.00;;;;2066652;28;20221;-50
2022/11/13 00:45:30;;;;;;;15.80;14.30;;;;;21.40;101587.00;;;;2070077;28;20225;-50
2022/11/13 00:46:31;;;;;;;16.30;14.60;;;;;21.50;101586.00;;;;2070321;28;20210;-50
2022/11/13 00:47:31;;;;;;;15.30;13.80;;;;;21.40;101590.00;;;;2070292;28;20217;-49
2022/11/13 00:48:31;;;;;;;14.70;13.27;;;;;21.40;101586.00;;;;2069782;28;20230;-50
2022/11/13 00:49:32;;;;;;;14.60;13.10;;;;;21.40;101585.00;;;;2070622;28;20210;-49
2022/11/13 00:50:32;;;;;;;15.20;13.70;;;;;21.40;101583.00;;;;2070741;28;20217;-50
2022/11/13 00:51:32;;;;;;;14.47;13.03;;;;;21.40;101583.00;;;;2070679;28;20218;-50
2022/11/13 00:52:33;;;;;;;17.10;13.37;;;;;21.40;101584.00;;;;2069717;28;20214;-50
2022/11/13 00:53:33;;;;;;;14.60;13.20;;;;;21.40;101584.00;;;;2070174;28;20207;-50
2022/11/13 00:54:33;;;;;;;15.57;14.00;;;;;21.30;101580.00;;;;2070393;28;20612;-50
2022/11/13 00:55:34;;;;;;;14.20;12.90;;;;;21.40;101573.00;;;;2067448;28;20301;-49
2022/11/13 00:56:34;;;;;;;14.80;13.40;;;;;21.40;101572.00;;;;2070024;28;20587;-49
2022/11/13 00:57:35;;;;;;;15.17;13.47;;;;;21.40;101571.00;;;;2070652;28;20217;-49
2022/11/13 00:58:35;;;;;;;14.43;12.93;;;;;21.40;101574.00;;;;2070346;28;20210;-50
2022/11/13 00:59:35;;;;;;;14.37;12.93;;;;;21.40;101575.00;;;;2070286;28;20638;-49
2022/11/13 01:00:35;;;;;;;14.23;12.77;;;;;21.40;101574.00;;;;2069896;28;20686;-50
2022/11/13 01:01:36;;;;;;;14.03;12.63;;;;;21.40;101576.00;;;;2069414;28;20728;-54
2022/11/13 01:02:36;;;;;;;13.60;12.20;;;;;21.40;101570.00;;;;2069790;28;20679;-52
2022/11/13 01:03:37;;;;;;;13.47;12.17;;;;;21.40;101572.00;;;;2071536;28;20961;-52
2022/11/13 01:04:37;;;;;;;13.37;12.00;;;;;21.40;101578.00;;;;2071672;28;20340;-51
2022/11/13 01:05:39;;;;;;;13.90;12.60;;;;;21.40;101573.00;;;;2071969;28;20488;-50
2022/11/13 01:06:39;;;;;;;13.85;12.50;;;;;21.40;101578.00;;;;2072225;28;20202;-50
2022/11/13 01:07:39;;;;;;;13.20;11.87;;;;;21.40;101571.00;;;;2072158;28;20545;-51
2022/11/13 01:08:40;;;;;;;14.23;12.73;;;;;21.40;101569.00;;;;2072114;28;20599;-49
2022/11/13 01:09:40;;;;;;;13.70;12.40;;;;;21.40;101579.00;;;;2071845;28;20207;-49
2022/11/13 01:10:43;;;;;;;13.13;11.60;;;;;21.40;101574.00;;;;2077174;28;20205;-50
2022/11/13 01:11:44;;;;;;;13.00;11.63;;;;;21.40;101576.00;;;;2079960;28;20206;-50
2022/11/13 01:12:44;;;;;;;12.13;10.70;;;;;21.40;101573.00;;;;2077770;28;20205;-50
2022/11/13 01:13:46;;;;;;;12.30;11.10;;;;;21.40;101563.00;;;;2071945;28;20845;-50
2022/11/13 01:14:46;;;;;;;12.73;11.50;;;;;21.30;101574.00;;;;2071255;28;20214;-49
2022/11/13 01:15:46;;;;;;;13.00;11.70;;;;;21.30;101571.00;;;;2070574;28;20210;-50
2022/11/13 01:16:47;;;;;;;13.97;12.33;;;;;21.30;101566.00;;;;2078996;28;20236;-50
2022/11/13 01:17:47;;;;;;;12.43;11.17;;;;;21.30;101565.00;;;;2080008;28;20202;-50
2022/11/13 01:18:47;;;;;;;12.50;11.30;;;;;21.30;101567.00;;;;2080109;28;20221;-50
2022/11/13 01:19:48;;;;;;;12.63;11.07;;;;;21.30;101575.00;;;;2080183;28;20233;-50
2022/11/13 01:20:48;;;;;;;12.03;10.80;;;;;21.30;101572.00;;;;2080011;28;20217;-50
2022/11/13 01:21:48;;;;;;;11.77;10.53;;;;;21.30;101571.00;;;;2079045;28;20236;-50
2022/11/13 01:22:49;;;;;;;12.70;11.40;;;;;21.30;101567.00;;;;2079959;28;20583;-50
2022/11/13 01:23:49;;;;;;;11.97;10.77;;;;;21.30;101566.00;;;;2080018;28;20871;-50
2022/11/13 01:24:49;;;;;;;13.13;11.60;;;;;21.30;101559.00;;;;2080099;28;20224;-50
2022/11/13 01:25:50;;;;;;;10.93;9.93;;;;;21.30;101569.00;;;;2079467;28;20221;-50
2022/11/13 01:26:50;;;;;;;13.43;11.33;;;;;21.30;101564.00;;;;2079542;28;20209;-50
2022/11/13 01:27:50;;;;;;;11.73;10.50;;;;;21.30;101563.00;;;;2079786;28;20217;-50
2022/11/13 01:28:51;;;;;;;11.17;10.07;;;;;21.30;101556.00;;;;2079794;28;20682;-50
2022/11/13 01:29:51;;;;;;;11.93;10.83;;;;;21.30;101557.00;;;;2079262;28;20729;-49
2022/11/13 01:30:51;;;;;;;11.57;10.47;;;;;21.30;101550.00;;;;2080024;28;20441;-50
2022/11/13 01:31:52;;;;;;;11.63;10.40;;;;;21.30;101546.00;;;;2078583;28;20209;-50
2022/11/13 01:32:52;;;;;;;11.23;10.23;;;;;21.30;101557.00;;;;2079988;28;20232;-50
2022/11/13 01:33:52;;;;;;;12.33;11.03;;;;;21.30;101552.00;;;;2080075;28;20229;-50
2022/11/13 01:34:53;;;;;;;10.80;9.70;;;;;21.30;101555.00;;;;2079561;28;20214;-50
2022/11/13 01:35:59;;;;;;;11.30;10.20;;;;;21.30;101552.00;;;;2079863;28;20239;-50
2022/11/13 01:36:59;;;;;;;11.02;9.93;;;;;21.30;101543.00;;;;2079836;28;20218;-50
2022/11/13 01:37:59;;;;;;;11.00;9.90;;;;;21.30;101549.00;;;;2079288;28;20297;-50
2022/11/13 01:39:00;;;;;;;11.27;10.17;;;;;21.30;101541.00;;;;2080036;28;20245;-49
2022/11/13 01:40:00;;;;;;;11.80;10.60;;;;;21.30;101539.00;;;;2080013;28;20225;-50
2022/11/13 01:41:00;;;;;;;11.30;10.30;;;;;21.30;101539.00;;;;2079939;28;20272;-50
2022/11/13 01:42:01;;;;;;;11.10;10.00;;;;;21.30;101541.00;;;;2078401;28;20233;-50
2022/11/13 01:43:18;;;;;;;11.17;10.07;;;;;21.30;101537.00;;;;2078363;28;20214;-50
2022/11/13 01:44:18;;;;;;;10.25;9.35;;;;;21.30;101545.00;;;;2078898;28;20209;-49
2022/11/13 01:45:48;;;;;;;10.60;9.60;;;;;21.00;101547.00;;;;2079063;28;20321;-50
2022/11/13 01:46:52;;;;;;;9.90;8.90;;;;;21.30;101543.00;;;;2078054;28;20240;-50
2022/11/13 01:47:52;;;;;;;10.20;9.20;;;;;21.30;101534.00;;;;2068750;28;20823;-50
2022/11/13 01:49:01;;;;;;;10.47;9.40;;;;;21.30;101541.00;;;;2078838;28;20224;-50
2022/11/13 01:50:01;;;;;;;10.55;9.55;;;;;21.30;101538.00;;;;2078952;28;20632;-50
2022/11/13 01:51:03;;;;;;;11.03;10.03;;;;;21.30;101531.00;;;;2070493;28;20214;-50
2022/11/13 01:52:09;;;;;;;10.48;9.48;;;;;21.30;101535.00;;;;2069945;28;20364;-50
2022/11/13 01:53:09;;;;;;;10.25;9.25;;;;;21.30;101540.00;;;;2077536;28;20229;-49
2022/11/13 01:54:12;;;;;;;10.50;9.20;;;;;21.30;101540.00;;;;2070600;28;20262;-50
2022/11/13 01:55:13;;;;;;;11.00;10.00;;;;;21.20;101540.00;;;;2060449;28;20222;-50
2022/11/13 01:56:13;;;;;;;10.52;9.45;;;;;21.20;101545.00;;;;2062061;28;20226;-50
2022/11/13 01:57:14;;;;;;;9.83;8.93;;;;;21.20;101536.00;;;;2078751;28;20218;-50
2022/11/13 01:58:14;;;;;;;9.97;9.00;;;;;21.20;101537.00;;;;2076802;28;20214;-50
2022/11/13 01:59:17;;;;;;;9.70;8.70;;;;;21.20;101533.00;;;;2077871;28;20616;-53
2022/11/13 02:00:17;;;;;;;10.70;9.70;;;;;21.20;101525.00;;;;2078665;28;20247;-50
2022/11/13 02:01:18;;;;;;;10.33;9.33;;;;;21.20;101537.00;;;;2078789;28;20685;-51
2022/11/13 02:02:18;;;;;;;10.10;9.17;;;;;21.20;101533.00;;;;2078687;28;20214;-50
2022/11/13 02:03:18;;;;;;;10.07;9.03;;;;;21.30;101528.00;;;;2079573;28;20210;-50
2022/11/13 02:04:19;;;;;;;10.00;9.00;;;;;21.20;101529.00;;;;2079792;28;20213;-50
2022/11/13 02:05:19;;;;;;;10.80;9.50;;;;;21.20;101521.00;;;;2079745;28;20217;-50
2022/11/13 02:06:20;;;;;;;9.83;8.90;;;;;21.20;101523.00;;;;2078876;28;20327;-50
2022/11/13 02:07:21;;;;;;;9.68;8.68;;;;;21.20;101518.00;;;;2069139;28;20864;-50
2022/11/13 02:08:22;;;;;;;9.80;8.80;;;;;21.20;101517.00;;;;2079021;28;20221;-50
2022/11/13 02:09:25;;;;;;;9.30;8.40;;;;;21.20;101526.00;;;;2070600;28;20301;-50
2022/11/13 02:10:25;;;;;;;10.15;9.15;;;;;21.20;101518.00;;;;2078860;28;20306;-50
2022/11/13 02:11:25;;;;;;;8.93;8.13;;;;;21.20;101517.00;;;;2078856;28;20692;-50
2022/11/13 02:12:34;;;;;;;8.90;8.10;;;;;21.20;101522.00;;;;2069825;28;20264;-50
2022/11/13 02:13:36;;;;;;;8.40;7.60;;;;;21.20;101524.00;;;;2070792;28;20237;-50
2022/11/13 02:14:45;;;;;;;9.90;8.90;;;;;21.20;101521.00;;;;2069798;28;23175;-50
2022/11/13 02:15:45;;;;;;;10.40;9.40;;;;;21.20;101512.00;;;;2079640;28;20202;-50
2022/11/13 02:16:46;;;;;;;9.50;8.60;;;;;21.20;101519.00;;;;2070460;28;20218;-50
2022/11/13 02:17:56;;;;;;;9.30;8.50;;;;;21.20;101523.00;;;;2070876;28;20315;-50
2022/11/13 02:18:57;;;;;;;9.70;8.80;;;;;21.20;101523.00;;;;2071968;28;20265;-50
2022/11/13 02:19:59;;;;;;;9.10;8.23;;;;;21.20;101510.00;;;;2057720;28;20559;-50
2022/11/13 02:21:20;;;;;;;8.77;7.88;;;;;21.20;101516.00;;;;2054871;28;20220;-50
2022/11/13 02:22:30;;;;;;;8.75;7.95;;;;;21.20;101516.00;;;;2066152;28;20718;-50
2022/11/13 02:23:53;;;;;;;8.90;8.05;;;;;21.10;101506.00;;;;2074374;28;20249;-50
2022/11/13 02:24:53;;;;;;;8.45;7.75;;;;;21.20;101503.00;;;;2062046;28;20306;-50
2022/11/13 02:25:53;;;;;;;8.73;7.87;;;;;21.10;101511.00;;;;2060373;28;20264;-50
2022/11/13 02:26:55;;;;;;;7.77;7.07;;;;;21.20;101518.00;;;;2070319;28;20241;-50
2022/11/13 02:27:56;;;;;;;9.52;8.63;;;;;21.10;101506.00;;;;2062357;28;20321;-50
2022/11/13 02:28:56;;;;;;;8.30;7.60;;;;;21.10;101511.00;;;;2062158;28;20203;-50
2022/11/13 02:29:56;;;;;;;8.37;7.67;;;;;21.10;101517.00;;;;2071407;28;20249;-50
2022/11/13 02:30:57;;;;;;;8.60;7.80;;;;;21.10;101510.00;;;;2071065;28;20206;-51
2022/11/13 02:31:57;;;;;;;8.70;7.80;;;;;21.20;101518.00;;;;2073090;28;20724;-50
2022/11/13 02:32:58;;;;;;;8.13;7.43;;;;;21.10;101512.00;;;;2063597;28;20465;-50
2022/11/13 02:34:01;;;;;;;8.93;8.03;;;;;21.10;101507.00;;;;2071950;28;20218;-50
2022/11/13 02:35:01;;;;;;;8.77;7.88;;;;;21.10;101515.00;;;;2078990;28;20217;-49
2022/11/13 02:36:01;;;;;;;8.27;7.57;;;;;21.10;101500.00;;;;2078439;28;20370;-50
2022/11/13 02:37:02;;;;;;;7.83;7.13;;;;;21.10;101508.00;;;;2070505;28;20218;-50
2022/11/13 02:38:03;;;;;;;8.93;8.07;;;;;21.10;101512.00;;;;2077582;28;20217;-50
2022/11/13 02:39:06;;;;;;;8.57;7.78;;;;;21.10;101513.00;;;;2079316;28;20623;-50
2022/11/13 02:40:07;;;;;;;8.77;7.97;;;;;21.10;101510.00;;;;2068670;28;20268;-50
2022/11/13 02:41:07;;;;;;;8.80;7.43;;;;;21.10;101509.00;;;;2069625;28;20321;-50
2022/11/13 02:42:07;;;;;;;8.30;7.50;;;;;21.10;101508.00;;;;2070089;28;20458;-49
2022/11/13 02:43:08;;;;;;;8.67;7.80;;;;;21.10;101516.00;;;;2070852;28;20250;-50
2022/11/13 02:44:08;;;;;;;7.87;7.17;;;;;21.10;101511.00;;;;2071346;28;20203;-50
2022/11/13 02:45:09;;;;;;;8.30;7.50;;;;;21.10;101504.00;;;;2071164;28;20237;-50
2022/11/13 02:46:09;;;;;;;8.30;7.50;;;;;21.10;101499.00;;;;2070919;28;20765;-50
2022/11/13 02:47:09;;;;;;;8.33;7.63;;;;;21.10;101502.00;;;;2069687;28;20245;-49
2022/11/13 02:48:10;;;;;;;8.53;7.73;;;;;20.90;101505.00;;;;2070403;28;20244;-50
2022/11/13 02:49:10;;;;;;;7.57;6.57;;;;;21.10;101501.00;;;;2070446;28;20214;-50
2022/11/13 02:50:11;;;;;;;7.07;6.37;;;;;21.10;101501.00;;;;2070973;28;20305;-49
2022/11/13 02:51:11;;;;;;;8.10;7.40;;;;;21.10;101493.00;;;;2071327;28;20218;-50
2022/11/13 02:52:11;;;;;;;7.77;7.07;;;;;21.10;101495.00;;;;2070138;28;20694;-50
2022/11/13 02:53:11;;;;;;;7.30;6.60;;;;;21.10;101495.00;;;;2069958;28;20504;-49
2022/11/13 02:54:12;;;;;;;7.73;7.03;;;;;21.10;101494.00;;;;2069788;28;20233;-50
2022/11/13 02:55:12;;;;;;;7.67;6.97;;;;;21.10;101494.00;;;;2070290;28;20251;-50
2022/11/13 02:56:12;;;;;;;8.07;7.27;;;;;21.10;101494.00;;;;2077991;28;20217;-50
2022/11/13 02:57:13;;;;;;;7.37;6.67;;;;;21.10;101491.00;;;;2077930;28;20264;-50
2022/11/13 02:58:13;;;;;;;9.27;7.60;;;;;21.10;101494.00;;;;2078839;28;20233;-50
2022/11/13 02:59:13;;;;;;;7.70;7.00;;;;;21.10;101483.00;;;;2078833;28;25156;-50
2022/11/13 03:00:14;;;;;;;7.40;6.70;;;;;21.00;101483.00;;;;2078855;28;20221;-50
2022/11/13 03:01:14;;;;;;;7.27;6.60;;;;;21.10;101495.00;;;;2078877;28;20612;-49
2022/11/13 03:02:15;;;;;;;7.43;6.73;;;;;21.10;101493.00;;;;2078042;28;20601;-50
2022/11/13 03:03:16;;;;;;;7.33;6.63;;;;;21.10;101493.00;;;;2078384;28;20591;-50
2022/11/13 03:04:16;;;;;;;7.37;6.77;;;;;21.00;101485.00;;;;2078743;28;20603;-49
2022/11/13 03:05:16;;;;;;;7.60;6.90;;;;;21.10;101485.00;;;;2075413;28;20669;-50
2022/11/13 03:06:17;;;;;;;6.60;6.10;;;;;21.10;101488.00;;;;2079021;28;20291;-50
2022/11/13 03:07:17;;;;;;;7.50;6.77;;;;;21.10;101490.00;;;;2077002;28;20220;-50
2022/11/13 03:08:18;;;;;;;7.93;6.90;;;;;21.10;101489.00;;;;2070323;28;20218;-49
2022/11/13 03:09:18;;;;;;;6.80;6.20;;;;;21.10;101487.00;;;;2070083;28;20225;-50
2022/11/13 03:10:19;;;;;;;7.20;6.57;;;;;21.00;101484.00;;;;2070887;28;20260;-50
2022/11/13 03:11:19;;;;;;;7.20;6.50;;;;;21.00;101485.00;;;;2070469;28;20218;-50
2022/11/13 03:12:20;;;;;;;7.10;6.50;;;;;20.90;101485.00;;;;2069483;28;20330;-50
2022/11/13 03:13:20;;;;;;;6.70;6.20;;;;;21.10;101488.00;;;;2070211;28;20217;-50
2022/11/13 03:14:20;;;;;;;6.97;6.37;;;;;21.10;101485.00;;;;2070335;28;20276;-50
2022/11/13 03:15:21;;;;;;;7.00;6.33;;;;;21.10;101486.00;;;;2070529;28;20757;-49
2022/11/13 03:16:21;;;;;;;6.63;6.10;;;;;21.00;101484.00;;;;2072381;28;20209;-50
2022/11/13 03:17:21;;;;;;;7.03;6.47;;;;;21.00;101482.00;;;;2078609;28;20399;-49
2022/11/13 03:18:22;;;;;;;7.63;6.93;;;;;21.00;101480.00;;;;2078317;28;20224;-50
2022/11/13 03:19:22;;;;;;;6.33;5.73;;;;;21.00;101479.00;;;;2066546;28;20214;-50
2022/11/13 03:20:22;;;;;;;7.10;6.40;;;;;21.00;101478.00;;;;2070469;28;20238;-50
2022/11/13 03:21:23;;;;;;;6.97;6.27;;;;;21.00;101480.00;;;;2070615;28;20232;-50
2022/11/13 03:22:23;;;;;;;6.97;6.30;;;;;21.00;101477.00;;;;2069523;28;20206;-50
2022/11/13 03:23:23;;;;;;;7.07;6.40;;;;;21.00;101477.00;;;;2071101;28;20230;-50
2022/11/13 03:24:24;;;;;;;6.60;6.00;;;;;21.00;101477.00;;;;2078207;28;20263;-50
2022/11/13 03:25:24;;;;;;;6.30;5.70;;;;;21.00;101483.00;;;;2078649;28;20221;-50
2022/11/13 03:26:27;;;;;;;6.77;6.10;;;;;21.00;101473.00;;;;2077326;28;20218;-50
2022/11/13 03:27:29;;;;;;;7.05;6.45;;;;;21.00;101471.00;;;;2078571;28;20215;-50
2022/11/13 03:28:29;;;;;;;6.90;6.30;;;;;21.00;101473.00;;;;2077556;28;20237;-50
2022/11/13 03:29:30;;;;;;;6.70;6.10;;;;;21.00;101475.00;;;;2077960;28;20236;-50
2022/11/13 03:30:30;;;;;;;6.80;6.20;;;;;21.00;101478.00;;;;2079009;28;20233;-50
2022/11/13 03:31:30;;;;;;;5.90;5.40;;;;;21.00;101471.00;;;;2078834;28;20289;-50
2022/11/13 03:32:31;;;;;;;7.00;6.40;;;;;21.00;101476.00;;;;2077931;28;20216;-51
2022/11/13 03:33:31;;;;;;;6.30;5.70;;;;;21.00;101476.00;;;;2078872;28;20341;-51
2022/11/13 03:34:31;;;;;;;7.07;6.37;;;;;21.00;101477.00;;;;2078947;28;20210;-50
2022/11/13 03:35:32;;;;;;;6.20;5.60;;;;;21.00;101470.00;;;;2077850;28;20213;-50
2022/11/13 03:36:32;;;;;;;6.70;6.10;;;;;21.00;101473.00;;;;2078804;28;20244;-50
2022/11/13 03:37:32;;;;;;;6.70;6.10;;;;;21.00;101477.00;;;;2078443;28;20209;-50
2022/11/13 03:38:33;;;;;;;6.97;6.30;;;;;21.00;101463.00;;;;2078304;28;20209;-51
2022/11/13 03:39:33;;;;;;;6.43;5.83;;;;;21.00;101464.00;;;;2076083;28;20558;-50
2022/11/13 03:40:34;;;;;;;5.80;5.30;;;;;21.00;101467.00;;;;2077649;28;20248;-50
2022/11/13 03:41:34;;;;;;;6.60;6.00;;;;;21.00;101470.00;;;;2078840;28;20214;-50
2022/11/13 03:42:35;;;;;;;6.30;5.73;;;;;21.00;101463.00;;;;2077813;28;20236;-49
2022/11/13 03:43:35;;;;;;;6.07;5.57;;;;;21.00;101466.00;;;;2078773;28;20259;-49
2022/11/13 03:44:35;;;;;;;6.40;5.80;;;;;21.00;101464.00;;;;2078720;28;20217;-50
2022/11/13 03:45:36;;;;;;;7.20;6.60;;;;;20.80;101461.00;;;;2078842;28;20221;-50
2022/11/13 03:46:36;;;;;;;6.77;6.10;;;;;21.00;101459.00;;;;2078695;28;20249;-50
2022/11/13 03:47:36;;;;;;;6.57;5.83;;;;;21.00;101457.00;;;;2078837;28;20236;-50
2022/11/13 03:48:37;;;;;;;6.37;5.80;;;;;21.00;101453.00;;;;2078707;28;20213;-50
2022/11/13 03:49:37;;;;;;;6.20;5.67;;;;;20.90;101453.00;;;;2078928;28;20217;-50
2022/11/13 03:50:37;;;;;;;6.03;5.43;;;;;21.00;101456.00;;;;2078933;28;20209;-50
2022/11/13 03:51:38;;;;;;;5.73;5.23;;;;;21.00;101460.00;;;;2078309;28;20233;-49
2022/11/13 03:52:38;;;;;;;6.23;5.63;;;;;20.90;101459.00;;;;2077429;28;20267;-50
2022/11/13 03:53:38;;;;;;;5.70;5.20;;;;;20.90;101464.00;;;;2078665;28;20732;-50
2022/11/13 03:54:39;;;;;;;6.13;5.53;;;;;20.90;101459.00;;;;2078513;28;20208;-50
2022/11/13 03:55:39;;;;;;;6.53;5.93;;;;;20.90;101456.00;;;;2068618;28;20206;-50
2022/11/13 03:56:39;;;;;;;6.17;5.57;;;;;20.90;101455.00;;;;2070418;28;20205;-50
2022/11/13 03:57:40;;;;;;;6.30;5.70;;;;;20.90;101464.00;;;;2070570;28;20396;-50
2022/11/13 03:58:40;;;;;;;5.87;5.30;;;;;20.90;101463.00;;;;2070767;28;20731;-50
2022/11/13 03:59:40;;;;;;;6.67;6.10;;;;;20.90;101455.00;;;;2070759;28;20206;-50
2022/11/13 04:00:41;;;;;;;5.90;5.30;;;;;20.90;101456.00;;;;2070734;28;20206;-51
2022/11/13 04:01:41;;;;;;;6.60;5.90;;;;;20.90;101459.00;;;;2077992;28;20221;-50
2022/11/13 04:02:41;;;;;;;6.10;5.40;;;;;20.90;101460.00;;;;2078147;28;20212;-50
2022/11/13 04:03:42;;;;;;;5.77;5.27;;;;;20.90;101452.00;;;;2077668;28;20229;-50
2022/11/13 04:04:43;;;;;;;6.10;5.60;;;;;20.90;101471.00;;;;2078068;28;20267;-50
2022/11/13 04:05:43;;;;;;;7.63;5.75;;;;;20.90;101459.00;;;;2078821;28;20237;-50
2022/11/13 04:06:44;;;;;;;5.77;5.20;;;;;20.90;101455.00;;;;2078458;28;20209;-50
2022/11/13 04:07:44;;;;;;;6.00;5.50;;;;;20.90;101446.00;;;;2078516;28;20280;-50
2022/11/13 04:08:44;;;;;;;6.20;5.60;;;;;20.90;101454.00;;;;2071905;28;20214;-50
2022/11/13 04:09:45;;;;;;;5.57;5.17;;;;;20.90;101452.00;;;;2070875;28;20214;-50
2022/11/13 04:10:45;;;;;;;6.20;5.60;;;;;20.90;101447.00;;;;2070731;28;20221;-50
2022/11/13 04:11:45;;;;;;;6.23;5.63;;;;;20.90;101446.00;;;;2070665;28;20206;-50
2022/11/13 04:12:46;;;;;;;6.10;5.50;;;;;20.90;101443.00;;;;2068561;28;20237;-50
2022/11/13 04:13:46;;;;;;;5.87;5.37;;;;;20.90;101451.00;;;;2070287;28;20214;-50
2022/11/13 04:14:46;;;;;;;5.97;5.37;;;;;20.90;101440.00;;;;2070369;28;20721;-50
2022/11/13 04:15:47;;;;;;;6.03;5.53;;;;;20.90;101438.00;;;;2070517;28;20208;-49
2022/11/13 04:16:47;;;;;;;5.53;5.03;;;;;20.90;101450.00;;;;2070691;28;20220;-50
2022/11/13 04:17:48;;;;;;;6.43;5.83;;;;;20.90;101443.00;;;;2070524;28;20206;-50
2022/11/13 04:18:48;;;;;;;5.93;5.43;;;;;20.90;101443.00;;;;2067107;28;20202;-50
2022/11/13 04:19:48;;;;;;;5.90;5.40;;;;;20.90;101443.00;;;;2070714;28;20201;-50
2022/11/13 04:20:49;;;;;;;5.70;5.20;;;;;20.90;101438.00;;;;2070568;28;20344;-50
2022/11/13 04:21:49;;;;;;;5.57;5.13;;;;;20.90;101435.00;;;;2069608;28;20210;-50
2022/11/13 04:22:49;;;;;;;5.80;5.30;;;;;20.90;101437.00;;;;2070627;28;20207;-49
2022/11/13 04:23:50;;;;;;;6.17;5.67;;;;;20.90;101439.00;;;;2070378;28;20240;-50
2022/11/13 04:24:50;;;;;;;5.83;5.30;;;;;20.90;101440.00;;;;2070772;28;20210;-50
2022/11/13 04:25:50;;;;;;;6.07;5.47;;;;;20.90;101435.00;;;;2070444;28;20214;-50
2022/11/13 04:26:51;;;;;;;6.67;5.97;;;;;20.90;101445.00;;;;2070238;28;20276;-50
2022/11/13 04:27:51;;;;;;;5.27;4.77;;;;;20.90;101430.00;;;;2070504;28;20206;-49
2022/11/13 04:28:52;;;;;;;5.57;5.07;;;;;20.90;101429.00;;;;2070079;28;20210;-50
2022/11/13 04:29:52;;;;;;;5.73;5.23;;;;;20.80;101432.00;;;;2070601;28;20221;-50
2022/11/13 04:30:53;;;;;;;5.50;5.10;;;;;20.80;101429.00;;;;2070706;28;20635;-50
2022/11/13 04:31:53;;;;;;;6.27;5.23;;;;;20.80;101432.00;;;;2069137;28;20673;-50
2022/11/13 04:32:53;;;;;;;5.70;5.20;;;;;20.80;101429.00;;;;2069578;28;20296;-50
2022/11/13 04:33:54;;;;;;;5.43;4.93;;;;;20.80;101434.00;;;;2070208;28;20284;-50
2022/11/13 04:34:54;;;;;;;5.10;4.70;;;;;20.80;101429.00;;;;2070510;28;20260;-50
2022/11/13 04:35:54;;;;;;;5.60;5.10;;;;;20.80;101425.00;;;;2066362;28;20234;-50
2022/11/13 04:36:55;;;;;;;4.93;4.53;;;;;20.80;101419.00;;;;2070364;28;20894;-50
2022/11/13 04:37:55;;;;;;;5.90;5.40;;;;;20.80;101420.00;;;;2071108;28;20799;-50
2022/11/13 04:38:55;;;;;;;6.00;5.50;;;;;20.80;101421.00;;;;2072068;28;20758;-50
2022/11/13 04:39:56;;;;;;;5.77;5.20;;;;;20.80;101415.00;;;;2070872;28;20336;-49
2022/11/13 04:43:34;;;;;;;5.80;5.30;;;;;20.80;101419.00;;;;2072310;28;20206;-49
2022/11/13 04:44:34;;;;;;;5.10;4.70;;;;;20.80;101411.00;;;;2071980;28;20206;-50
2022/11/13 04:45:34;;;;;;;6.57;5.97;;;;;20.80;101412.00;;;;2071931;28;20272;-50
2022/11/13 04:46:35;;;;;;;5.70;5.20;;;;;20.80;101416.00;;;;2075461;28;20228;-50
2022/11/13 04:47:35;;;;;;;5.57;5.07;;;;;20.80;101413.00;;;;2080198;28;20209;-50
2022/11/13 04:48:35;;;;;;;5.83;5.33;;;;;20.80;101420.00;;;;2080031;28;20224;-50
2022/11/13 04:49:36;;;;;;;6.03;5.47;;;;;20.80;101412.00;;;;2080179;28;20214;-50
2022/11/13 04:50:36;;;;;;;6.30;5.80;;;;;20.80;101416.00;;;;2079798;28;20681;-50
2022/11/13 04:51:36;;;;;;;5.80;5.30;;;;;20.80;101420.00;;;;2080098;28;20289;-50
2022/11/13 04:52:37;;;;;;;5.90;5.40;;;;;20.80;101422.00;;;;2078066;28;20669;-50
2022/11/13 04:53:37;;;;;;;5.50;5.00;;;;;20.80;101419.00;;;;2071817;28;20206;-49
2022/11/13 04:54:37;;;;;;;5.07;4.63;;;;;20.80;101422.00;;;;2071996;28;20221;-49
2022/11/13 04:55:38;;;;;;;5.70;5.20;;;;;20.80;101417.00;;;;2069323;28;20210;-49
2022/11/13 04:56:38;;;;;;;6.10;5.50;;;;;20.80;101419.00;;;;2072277;28;20217;-50
2022/11/13 04:57:38;;;;;;;5.43;4.93;;;;;20.80;101415.00;;;;2071472;28;20215;-49
2022/11/13 04:58:39;;;;;;;6.43;5.40;;;;;20.80;101412.00;;;;2072246;28;20216;-49
2022/11/13 04:59:39;;;;;;;4.93;4.53;;;;;20.80;101411.00;;;;2079335;28;20305;-49
2022/11/13 05:00:39;;;;;;;5.30;4.90;;;;;20.80;101412.00;;;;2079911;28;20805;-49
2022/11/13 05:01:39;;;;;;;5.47;4.97;;;;;20.80;101422.00;;;;2079960;28;20674;-50